createdAt,value
2018-02-27T00:02:13.450Z,102626.66
2018-02-27T00:04:41.819Z,102627.47
2018-02-27T00:07:10.161Z,102622.70
2018-02-27T00:09:38.488Z,102620.73
2018-02-27T00:12:07.417Z,102614.85
2018-02-27T00:14:35.824Z,102620.02
2018-02-27T00:17:04.129Z,102607.59
2018-02-27T00:19:32.531Z,102605.36
2018-02-27T00:22:00.905Z,102596.66
2018-02-27T00:24:29.248Z,102605.59
2018-02-27T00:26:57.601Z,102606.41
2018-02-27T00:29:26.094Z,102609.34
2018-02-27T00:31:54.453Z,102614.59
2018-02-27T00:34:23.502Z,102608.84
2018-02-27T00:36:51.817Z,102603.16
2018-02-27T00:39:20.230Z,102600.90
2018-02-27T00:41:48.572Z,102607.22
2018-02-27T00:44:16.916Z,102602.45
2018-02-27T00:46:45.305Z,102599.73
2018-02-27T00:49:13.671Z,102600.33
2018-02-27T00:51:42.014Z,102597.61
2018-02-27T00:54:10.569Z,102593.66
2018-02-27T00:56:39.200Z,102601.62
2018-02-27T00:59:07.622Z,102590.20
2018-02-27T01:01:36.038Z,102593.10
2018-02-27T01:04:04.391Z,102585.87
2018-02-27T01:06:32.767Z,102581.25
2018-02-27T01:09:01.144Z,102577.91
2018-02-27T01:11:29.550Z,102570.40
2018-02-27T01:13:57.890Z,102564.34
2018-02-27T01:16:26.234Z,102565.00
2018-02-27T01:18:54.749Z,102558.77
2018-02-27T01:21:23.126Z,102550.58
2018-02-27T01:23:51.463Z,102544.73
2018-02-27T01:26:19.818Z,102548.13
2018-02-27T01:28:48.122Z,102552.79
2018-02-27T01:31:16.471Z,102547.28
2018-02-27T01:33:45.600Z,102550.30
2018-02-27T01:36:13.949Z,102554.69
2018-02-27T01:38:42.297Z,102555.23
2018-02-27T01:41:11.111Z,102550.46
2018-02-27T01:43:40.216Z,102551.80
2018-02-27T01:46:08.538Z,102557.55
2018-02-27T01:48:36.902Z,102549.79
2018-02-27T01:51:14.973Z,102548.92
2018-02-27T01:53:44.108Z,102536.67
2018-02-27T01:56:12.445Z,102533.31
2018-02-27T01:58:41.551Z,102528.12
2018-02-27T02:01:10.231Z,102526.23
2018-02-27T02:03:39.322Z,102512.24
2018-02-27T02:06:07.629Z,102512.98
2018-02-27T02:08:35.960Z,102511.55
2018-02-27T02:11:04.304Z,102511.74
2018-02-27T02:13:32.636Z,102512.20
2018-02-27T02:16:01.764Z,102515.15
2018-02-27T02:18:30.552Z,102512.84
2018-02-27T02:20:58.902Z,102513.31
2018-02-27T02:23:28.083Z,102508.94
2018-02-27T02:25:56.398Z,102502.77
2018-02-27T02:28:24.727Z,102511.03
2018-02-27T02:30:53.061Z,102508.19
2018-02-27T02:33:21.464Z,102512.34
2018-02-27T02:35:49.785Z,102515.91
2018-02-27T02:38:18.946Z,102501.70
2018-02-27T02:40:47.284Z,102502.33
2018-02-27T02:43:15.593Z,102499.44
2018-02-27T02:45:44.283Z,102485.41
2018-02-27T02:48:12.608Z,102479.09
2018-02-27T02:50:41.683Z,102473.80
2018-02-27T02:53:10.009Z,102473.73
2018-02-27T02:55:38.313Z,102477.56
2018-02-27T02:58:06.621Z,102458.42
2018-02-27T03:00:35.706Z,102464.56
2018-02-27T03:03:04.012Z,102455.16
2018-02-27T03:05:32.346Z,102465.91
2018-02-27T03:08:01.071Z,102461.97
2018-02-27T03:10:30.139Z,102463.41
2018-02-27T03:12:58.486Z,102467.75
2018-02-27T03:15:26.807Z,102465.52
2018-02-27T03:17:55.170Z,102467.44
2018-02-27T03:20:23.480Z,102466.76
2018-02-27T03:22:52.590Z,102460.04
2018-02-27T03:25:21.260Z,102459.77
2018-02-27T03:27:50.382Z,102457.81
2018-02-27T03:30:19.021Z,102452.48
2018-02-27T03:32:48.116Z,102448.41
2018-02-27T03:35:16.409Z,102436.95
2018-02-27T03:37:46.008Z,102441.98
2018-02-27T03:40:14.540Z,102444.20
2018-02-27T03:42:42.868Z,102442.69
2018-02-27T03:45:11.242Z,102432.94
2018-02-27T03:47:39.570Z,102433.54
2018-02-27T03:50:07.889Z,102433.58
2018-02-27T03:52:36.380Z,102425.75
2018-02-27T03:55:04.681Z,102422.63
2018-02-27T03:57:33.775Z,102423.16
2018-02-27T04:00:03.002Z,102415.95
2018-02-27T04:02:31.307Z,102415.14
2018-02-27T04:04:59.601Z,102402.71
2018-02-27T04:07:27.930Z,102394.92
2018-02-27T04:09:56.245Z,102388.70
2018-02-27T04:12:24.547Z,102390.42
2018-02-27T04:14:53.098Z,102399.95
2018-02-27T04:17:21.431Z,102392.22
2018-02-27T04:19:50.780Z,102384.95
2018-02-27T04:22:19.141Z,102385.19
2018-02-27T04:24:47.459Z,102384.20
2018-02-27T04:27:15.832Z,102386.33
2018-02-27T04:29:44.288Z,102381.37
2018-02-27T04:32:12.701Z,102385.30
2018-02-27T04:34:41.189Z,102381.50
2018-02-27T04:37:10.690Z,102375.30
2018-02-27T04:39:39.168Z,102374.34
2018-02-27T04:42:07.557Z,102375.53
2018-02-27T04:44:35.931Z,102374.48
2018-02-27T04:47:04.311Z,102371.97
2018-02-27T04:49:32.689Z,102373.52
2018-02-27T04:52:01.122Z,102365.37
2018-02-27T04:54:29.518Z,102368.33
2018-02-27T04:56:58.025Z,102367.12
2018-02-27T04:59:26.818Z,102355.67
2018-02-27T05:01:55.193Z,102362.83
2018-02-27T05:04:23.581Z,102360.23
2018-02-27T05:06:51.992Z,102351.71
2018-02-27T05:09:21.199Z,102357.34
2018-02-27T05:11:49.601Z,102350.96
2018-02-27T05:14:17.980Z,102351.55
2018-02-27T05:16:46.395Z,102353.95
2018-02-27T05:19:14.716Z,102348.18
2018-02-27T05:21:44.859Z,102353.44
2018-02-27T05:24:13.288Z,102354.11
2018-02-27T05:26:41.652Z,102348.34
2018-02-27T05:29:10.140Z,102347.95
2018-02-27T05:31:38.625Z,102341.98
2018-02-27T05:34:06.931Z,102336.20
2018-02-27T05:36:35.481Z,102334.16
2018-02-27T05:39:03.962Z,102344.17
2018-02-27T05:41:32.338Z,102344.24
2018-02-27T05:44:01.157Z,102331.08
2018-02-27T05:46:30.320Z,102338.93
2018-02-27T05:48:58.754Z,102339.79
2018-02-27T05:51:27.194Z,102337.36
2018-02-27T05:53:55.584Z,102333.28
2018-02-27T05:56:24.052Z,102321.89
2018-02-27T05:58:52.601Z,102324.11
2018-02-27T06:01:20.985Z,102323.02
2018-02-27T06:03:49.394Z,102325.84
2018-02-27T06:06:18.132Z,102322.34
2018-02-27T06:08:46.496Z,102324.06
2018-02-27T06:11:15.658Z,102321.56
2018-02-27T06:13:44.935Z,102324.00
2018-02-27T06:16:13.449Z,102325.52
2018-02-27T06:18:41.899Z,102329.55
2018-02-27T06:21:10.404Z,102329.70
2018-02-27T06:23:38.991Z,102320.90
2018-02-27T06:26:07.306Z,102321.16
2018-02-27T06:28:35.807Z,102325.41
2018-02-27T06:31:04.201Z,102326.02
2018-02-27T06:33:32.546Z,102322.05
2018-02-27T06:36:00.898Z,102326.29
2018-02-27T06:38:29.232Z,102328.72
2018-02-27T06:40:57.537Z,102326.07
2018-02-27T06:43:25.880Z,102322.36
2018-02-27T06:45:54.191Z,102316.31
2018-02-27T06:48:22.520Z,102319.33
2018-02-27T06:50:52.108Z,102317.36
2018-02-27T06:53:20.415Z,102296.73
2018-02-27T06:55:48.729Z,102301.96
2018-02-27T06:58:17.061Z,102296.09
2018-02-27T07:00:45.374Z,102291.52
2018-02-27T07:03:13.688Z,102293.03
2018-02-27T07:05:42.007Z,102288.97
2018-02-27T07:08:10.313Z,102281.84
2018-02-27T07:10:38.626Z,102291.88
2018-02-27T07:13:08.037Z,102286.97
2018-02-27T07:15:37.129Z,102280.66
2018-02-27T07:18:05.447Z,102282.36
2018-02-27T07:20:33.819Z,102276.08
2018-02-27T07:23:02.123Z,102275.89
2018-02-27T07:25:30.466Z,102268.09
2018-02-27T07:27:58.823Z,102266.20
2018-02-27T07:30:27.912Z,102262.62
2018-02-27T07:32:57.007Z,102271.05
2018-02-27T07:35:26.270Z,102276.42
2018-02-27T07:37:54.627Z,102276.32
2018-02-27T07:40:22.956Z,102272.13
2018-02-27T07:42:51.318Z,102271.33
2018-02-27T07:45:19.628Z,102274.19
2018-02-27T07:47:47.960Z,102275.33
2018-02-27T07:50:16.317Z,102269.86
2018-02-27T07:52:44.643Z,102266.78
2018-02-27T07:55:12.936Z,102267.47
2018-02-27T07:57:42.212Z,102258.89
2018-02-27T08:00:10.519Z,102260.10
2018-02-27T08:02:39.601Z,102266.89
2018-02-27T08:05:07.974Z,102254.08
2018-02-27T08:07:36.299Z,102261.09
2018-02-27T08:10:04.650Z,102268.01
2018-02-27T08:12:32.985Z,102277.72
2018-02-27T08:15:01.312Z,102282.95
2018-02-27T08:17:29.613Z,102279.73
2018-02-27T08:19:59.279Z,102280.33
2018-02-27T08:22:27.588Z,102269.63
2018-02-27T08:24:55.917Z,102275.83
2018-02-27T08:27:24.279Z,102262.64
2018-02-27T08:29:52.600Z,102261.20
2018-02-27T08:32:20.951Z,102259.59
2018-02-27T08:34:49.315Z,102256.08
2018-02-27T08:37:17.629Z,102261.92
2018-02-27T08:39:45.945Z,102253.85
2018-02-27T08:42:14.379Z,102252.28
2018-02-27T08:44:42.699Z,102248.94
2018-02-27T08:47:11.052Z,102261.39
2018-02-27T08:49:40.164Z,102259.74
2018-02-27T08:52:09.256Z,102251.65
2018-02-27T08:54:38.361Z,102249.07
2018-02-27T08:57:07.480Z,102249.27
2018-02-27T08:59:35.800Z,102244.97
2018-02-27T09:02:04.121Z,102241.01
2018-02-27T09:04:32.758Z,102240.50
2018-02-27T09:07:01.077Z,102237.27
2018-02-27T09:09:29.436Z,102240.31
2018-02-27T09:11:58.537Z,102238.80
2018-02-27T09:14:27.637Z,102240.34
2018-02-27T09:16:56.706Z,102240.42
2018-02-27T09:19:25.046Z,102249.33
2018-02-27T09:21:53.364Z,102243.82
2018-02-27T09:24:21.727Z,102247.56
2018-02-27T09:26:50.549Z,102245.70
2018-02-27T09:29:19.637Z,102234.51
2018-02-27T09:31:47.955Z,102223.59
2018-02-27T09:34:16.318Z,102226.68
2018-02-27T09:36:45.388Z,102225.37
2018-02-27T09:39:13.683Z,102221.93
2018-02-27T09:41:42.792Z,102223.53
2018-02-27T09:44:11.126Z,102224.56
2018-02-27T09:46:39.461Z,102218.70
2018-02-27T09:49:08.135Z,102226.53
2018-02-27T09:51:36.416Z,102229.03
2018-02-27T09:54:05.631Z,102218.90
2018-02-27T09:56:33.978Z,102214.16
2018-02-27T09:59:02.279Z,102208.75
2018-02-27T10:01:30.576Z,102195.09
2018-02-27T10:03:58.936Z,102190.64
2018-02-27T10:06:27.230Z,102194.97
2018-02-27T10:08:55.573Z,102201.01
2018-02-27T10:11:24.878Z,102203.00
2018-02-27T10:13:53.184Z,102205.94
2018-02-27T10:16:21.530Z,102203.27
2018-02-27T10:18:50.613Z,102201.72
2018-02-27T10:21:19.678Z,102199.32
2018-02-27T10:23:48.565Z,102207.20
2018-02-27T10:26:16.904Z,102203.83
2018-02-27T10:28:45.233Z,102198.89
2018-02-27T10:31:13.546Z,102201.92
2018-02-27T10:33:43.237Z,102196.36
2018-02-27T10:36:11.575Z,102192.63
2018-02-27T10:38:39.887Z,102190.19
2018-02-27T10:41:08.223Z,102177.98
2018-02-27T10:43:36.576Z,102185.45
2018-02-27T10:46:04.878Z,102187.62
2018-02-27T10:48:33.213Z,102188.23
2018-02-27T10:51:02.304Z,102183.16
2018-02-27T10:53:31.391Z,102180.59
2018-02-27T10:56:01.194Z,102175.84
2018-02-27T10:58:29.512Z,102176.59
2018-02-27T11:00:57.818Z,102176.91
2018-02-27T11:03:26.279Z,102162.99
2018-02-27T11:05:54.620Z,102156.86
2018-02-27T11:08:22.923Z,102156.66
2018-02-27T11:10:52.029Z,102152.47
2018-02-27T11:13:20.434Z,102153.41
2018-02-27T11:15:48.739Z,102163.80
2018-02-27T11:18:17.389Z,102171.13
2018-02-27T11:20:45.717Z,102174.56
2018-02-27T11:23:14.067Z,102164.62
2018-02-27T11:25:42.401Z,102174.22
2018-02-27T11:28:10.717Z,102170.03
2018-02-27T11:30:39.014Z,102167.52
2018-02-27T11:33:07.346Z,102161.59
2018-02-27T11:35:36.412Z,102159.45
2018-02-27T11:38:04.711Z,102150.47
2018-02-27T11:40:34.096Z,102148.92
2018-02-27T11:43:02.432Z,102151.92
2018-02-27T11:45:30.738Z,102142.25
2018-02-27T11:47:59.084Z,102149.60
2018-02-27T11:50:27.672Z,102142.61
2018-02-27T11:52:56.015Z,102143.08
2018-02-27T11:55:25.124Z,102145.80
2018-02-27T11:57:53.460Z,102139.73
2018-02-27T12:00:21.766Z,102145.95
2018-02-27T12:02:51.147Z,102144.30
2018-02-27T12:05:20.231Z,102145.64
2018-02-27T12:07:48.532Z,102146.07
2018-02-27T12:10:17.627Z,102144.02
2018-02-27T12:12:46.724Z,102145.00
2018-02-27T12:15:15.815Z,102148.62
2018-02-27T12:17:44.905Z,102142.65
2018-02-27T12:20:13.271Z,102142.77
2018-02-27T12:22:41.628Z,102135.39
2018-02-27T12:25:11.060Z,102122.95
2018-02-27T12:27:39.396Z,102119.27
2018-02-27T12:30:07.908Z,102113.38
2018-02-27T12:32:36.238Z,102106.72
2018-02-27T12:35:04.541Z,102102.48
2018-02-27T12:37:32.852Z,102098.69
2018-02-27T12:40:01.209Z,102080.94
2018-02-27T12:42:30.374Z,102081.33
2018-02-27T12:44:58.693Z,102081.63
2018-02-27T12:47:27.317Z,102071.09
2018-02-27T12:49:56.437Z,102074.73
2018-02-27T12:52:24.768Z,102066.96
2018-02-27T12:54:53.102Z,102068.38
2018-02-27T12:57:21.431Z,102071.81
2018-02-27T12:59:50.530Z,102067.84
2018-02-27T13:02:19.654Z,102072.31
2018-02-27T13:04:47.973Z,102071.02
2018-02-27T13:07:16.277Z,102064.35
2018-02-27T13:09:44.980Z,102067.94
2018-02-27T13:12:13.343Z,102073.05
2018-02-27T13:14:41.645Z,102071.52
2018-02-27T13:17:10.769Z,102073.20
2018-02-27T13:19:39.065Z,102073.23
2018-02-27T13:22:07.400Z,102075.41
2018-02-27T13:24:35.749Z,102077.09
2018-02-27T13:27:04.099Z,102071.85
2018-02-27T13:29:32.430Z,102073.14
2018-02-27T13:32:01.249Z,102073.55
2018-02-27T13:34:29.556Z,102069.65
2018-02-27T13:36:57.894Z,102072.73
2018-02-27T13:39:26.233Z,102075.66
2018-02-27T13:41:54.573Z,102069.88
2018-02-27T13:44:22.883Z,102064.98
2018-02-27T13:46:51.206Z,102068.74
2018-02-27T13:49:24.844Z,102069.00
2018-02-27T13:51:47.865Z,102067.16
2018-02-27T13:54:16.613Z,102068.88
2018-02-27T13:56:44.928Z,102067.36
2018-02-27T13:59:13.229Z,102067.66
2018-02-27T14:01:41.572Z,102081.58
2018-02-27T14:04:09.918Z,102079.62
2018-02-27T14:06:38.241Z,102087.73
2018-02-27T14:09:06.548Z,102079.22
2018-02-27T14:11:34.856Z,102075.65
2018-02-27T14:14:03.189Z,102079.62
2018-02-27T14:16:31.933Z,102073.59
2018-02-27T14:19:00.236Z,102072.47
2018-02-27T14:21:28.706Z,102071.99
2018-02-27T14:23:57.043Z,102067.09
2018-02-27T14:26:25.442Z,102070.36
2018-02-27T14:28:53.720Z,102065.95
2018-02-27T14:31:22.089Z,102069.27
2018-02-27T14:33:50.425Z,102065.02
2018-02-27T14:36:18.713Z,102062.92
2018-02-27T14:38:47.435Z,102062.30
2018-02-27T14:41:15.767Z,102069.77
2018-02-27T14:43:44.090Z,102064.82
2018-02-27T14:46:12.455Z,102065.50
2018-02-27T14:48:40.803Z,102064.50
2018-02-27T14:51:09.151Z,102065.62
2018-02-27T14:53:38.254Z,102064.17
2018-02-27T14:56:06.580Z,102068.38
2018-02-27T14:58:34.862Z,102059.11
2018-02-27T15:01:03.593Z,102052.53
2018-02-27T15:03:32.677Z,102050.73
2018-02-27T15:06:01.004Z,102054.13
2018-02-27T15:08:29.350Z,102042.98
2018-02-27T15:10:57.665Z,102042.48
2018-02-27T15:13:26.008Z,102041.83
2018-02-27T15:15:54.361Z,102046.87
2018-02-27T15:18:23.457Z,102034.88
2018-02-27T15:20:51.781Z,102031.02
2018-02-27T15:23:20.206Z,102031.53
2018-02-27T15:25:49.322Z,102038.04
2018-02-27T15:28:18.412Z,102039.51
2018-02-27T15:30:47.542Z,102037.50
2018-02-27T15:33:15.841Z,102032.88
2018-02-27T15:35:44.186Z,102033.30
2018-02-27T15:38:12.551Z,102041.29
2018-02-27T15:40:41.607Z,102033.89
2018-02-27T15:43:09.921Z,102031.14
2018-02-27T15:45:39.514Z,102034.52
2018-02-27T15:48:07.896Z,102038.42
2018-02-27T15:50:36.206Z,102041.14
2018-02-27T15:53:04.554Z,102045.56
2018-02-27T15:55:32.867Z,102040.42
2018-02-27T15:58:01.178Z,102041.83
2018-02-27T16:00:29.535Z,102044.34
2018-02-27T16:02:57.845Z,102048.41
2018-02-27T16:05:26.135Z,102044.17
2018-02-27T16:07:54.794Z,102054.86
2018-02-27T16:10:23.092Z,102046.69
2018-02-27T16:12:51.400Z,102062.84
2018-02-27T16:15:19.744Z,102061.95
2018-02-27T16:17:48.064Z,102066.03
2018-02-27T16:20:17.193Z,102063.39
2018-02-27T16:22:45.528Z,102065.59
2018-02-27T16:25:14.591Z,102068.71
2018-02-27T16:27:42.918Z,102072.91
2018-02-27T16:30:11.508Z,102077.94
2018-02-27T16:32:39.794Z,102076.27
2018-02-27T16:35:08.106Z,102074.55
2018-02-27T16:37:36.475Z,102075.02
2018-02-27T16:40:04.781Z,102087.55
2018-02-27T16:42:33.112Z,102072.83
2018-02-27T16:45:01.461Z,102083.79
2018-02-27T16:47:29.792Z,102090.30
2018-02-27T16:49:58.120Z,102097.54
2018-02-27T16:52:26.599Z,102103.45
2018-02-27T16:54:55.668Z,102100.09
2018-02-27T16:57:23.973Z,102095.90
2018-02-27T16:59:52.317Z,102104.84
2018-02-27T17:02:20.633Z,102106.67
2018-02-27T17:04:49.735Z,102101.41
2018-02-27T17:07:18.102Z,102113.48
2018-02-27T17:09:47.205Z,102116.70
2018-02-27T17:12:16.359Z,102119.08
2018-02-27T17:14:45.105Z,102120.67
2018-02-27T17:17:13.431Z,102119.39
2018-02-27T17:22:16.342Z,102122.27
2018-02-27T17:24:44.697Z,102122.46
2018-02-27T17:27:13.168Z,102133.25
2018-02-27T17:29:41.522Z,102130.12
2018-02-27T17:32:09.841Z,102130.88
2018-02-27T17:34:38.158Z,102131.72
2018-02-27T17:37:07.465Z,102130.08
2018-02-27T17:39:36.565Z,102130.88
2018-02-27T17:42:05.681Z,102136.11
2018-02-27T17:44:34.022Z,102132.28
2018-02-27T17:47:02.357Z,102136.94
2018-02-27T17:49:30.680Z,102141.16
2018-02-27T17:51:59.818Z,102144.68
2018-02-27T17:54:28.146Z,102144.39
2018-02-27T17:56:56.459Z,102146.05
2018-02-27T17:59:24.945Z,102144.76
2018-02-27T18:01:53.263Z,102146.69
2018-02-27T18:04:21.608Z,102150.88
2018-02-27T18:06:50.034Z,102160.86
2018-02-27T18:09:18.375Z,102149.97
2018-02-27T18:11:46.698Z,102163.58
2018-02-27T18:14:15.039Z,102166.06
2018-02-27T18:16:43.402Z,102161.48
2018-02-27T18:19:11.730Z,102169.77
2018-02-27T18:21:40.445Z,102164.05
2018-02-27T18:24:09.643Z,102168.58
2018-02-27T18:26:38.755Z,102170.77
2018-02-27T18:29:07.118Z,102168.61
2018-02-27T18:31:35.497Z,102169.04
2018-02-27T18:34:03.809Z,102173.87
2018-02-27T18:36:32.157Z,102170.97
2018-02-27T18:39:00.481Z,102178.41
2018-02-27T18:41:28.821Z,102180.23
2018-02-27T18:43:57.633Z,102186.95
2018-02-27T18:46:25.781Z,102199.16
2018-02-27T18:48:55.006Z,102198.61
2018-02-27T18:51:23.339Z,102205.83
2018-02-27T18:53:51.660Z,102209.30
2018-02-27T18:56:20.014Z,102208.38
2018-02-27T18:58:49.121Z,102209.98
2018-02-27T19:01:17.462Z,102218.19
2018-02-27T19:03:46.582Z,102217.78
2018-02-27T19:06:15.983Z,102224.52
2018-02-27T19:08:44.309Z,102219.25
2018-02-27T19:11:13.382Z,102229.34
2018-02-27T19:13:41.946Z,102235.77
2018-02-27T19:16:11.040Z,102242.94
2018-02-27T19:18:40.128Z,102252.17
2018-02-27T19:21:09.267Z,102250.29
2018-02-27T19:23:37.607Z,102259.08
2018-02-27T19:26:05.945Z,102256.78
2018-02-27T19:28:34.757Z,102256.63
2018-02-27T19:31:03.084Z,102268.09
2018-02-27T19:33:31.452Z,102266.67
2018-02-27T19:35:59.806Z,102270.06
2018-02-27T19:38:28.901Z,102274.17
2018-02-27T19:40:57.248Z,102276.28
2018-02-27T19:43:25.609Z,102288.80
2018-02-27T19:45:53.937Z,102295.05
2018-02-27T19:48:22.294Z,102302.03
2018-02-27T19:50:50.709Z,102301.00
2018-02-27T19:53:19.811Z,102307.82
2018-02-27T19:55:48.194Z,102311.36
2018-02-27T19:58:16.835Z,102317.17
2018-02-27T20:00:45.188Z,102330.41
2018-02-27T20:03:13.512Z,102325.09
2018-02-27T20:05:42.653Z,102335.53
2018-02-27T20:08:10.983Z,102330.51
2018-02-27T20:10:40.113Z,102328.13
2018-02-27T20:13:08.609Z,102338.04
2018-02-27T20:15:36.954Z,102346.88
2018-02-27T20:18:12.551Z,102341.72
2018-02-27T20:20:40.880Z,102348.08
2018-02-27T20:23:14.646Z,102343.97
2018-02-27T20:25:43.005Z,102359.08
2018-02-27T20:31:13.403Z,102359.56
2018-02-27T20:33:42.585Z,102369.92
2018-02-27T20:36:10.929Z,102359.34
2018-02-27T20:38:44.852Z,102376.22
2018-02-27T20:41:13.207Z,102371.56
2018-02-27T20:43:41.528Z,102379.92
2018-02-27T20:46:09.933Z,102389.35
2018-02-27T20:48:38.296Z,102380.70
2018-02-27T20:51:06.634Z,102385.50
2018-02-27T20:53:35.009Z,102388.39
2018-02-27T20:56:03.357Z,102400.75
2018-02-27T20:58:32.429Z,102401.93
2018-02-27T21:01:00.786Z,102404.20
2018-02-27T21:03:29.161Z,102404.50
2018-02-27T21:05:57.521Z,102409.85
2018-02-27T21:08:25.999Z,102405.12
2018-02-27T21:10:54.345Z,102406.14
2018-02-27T21:13:22.680Z,102424.32
2018-02-27T21:15:51.033Z,102430.23
2018-02-27T21:18:19.377Z,102419.12
2018-02-27T21:20:47.731Z,102429.13
2018-02-27T21:23:16.078Z,102429.25
2018-02-27T21:25:44.392Z,102436.53
2018-02-27T21:28:12.733Z,102435.91
2018-02-27T21:30:41.294Z,102437.72
2018-02-27T21:33:10.381Z,102431.44
2018-02-27T21:35:39.508Z,102438.25
2018-02-27T21:38:07.900Z,102440.02
2018-02-27T21:40:36.258Z,102438.94
2018-02-27T21:43:04.585Z,102444.60
2018-02-27T21:45:32.958Z,102437.64
2018-02-27T21:48:01.349Z,102446.54
2018-02-27T21:50:29.626Z,102451.52
2018-02-27T21:52:58.058Z,102454.37
2018-02-27T21:55:26.386Z,102460.41
2018-02-27T21:57:55.480Z,102460.27
2018-02-27T22:00:23.845Z,102459.53
2018-02-27T22:02:52.193Z,102462.68
2018-02-27T22:05:20.554Z,102459.12
2018-02-27T22:07:49.216Z,102463.30
2018-02-27T22:10:18.308Z,102469.50
2018-02-27T22:12:46.649Z,102466.80
2018-02-27T22:15:15.152Z,102471.93
2018-02-27T22:17:43.487Z,102476.83
2018-02-27T22:20:11.785Z,102467.29
2018-02-27T22:22:40.146Z,102476.97
2018-02-27T22:25:08.479Z,102483.82
2018-02-27T22:27:36.803Z,102480.53
2018-02-27T22:30:05.177Z,102478.54
2018-02-27T22:32:33.500Z,102477.36
2018-02-27T22:35:01.846Z,102487.36
2018-02-27T22:37:30.474Z,102482.70
2018-02-27T22:39:58.829Z,102479.94
2018-02-27T22:42:27.165Z,102480.92
2018-02-27T22:44:55.497Z,102480.87
2018-02-27T22:47:23.801Z,102475.36
2018-02-27T22:49:52.883Z,102486.72
2018-02-27T22:52:21.260Z,102481.05
2018-02-27T22:54:49.588Z,102489.30
2018-02-27T22:57:17.901Z,102486.94
2018-02-27T22:59:46.515Z,102489.12
2018-02-27T23:02:15.586Z,102492.84
2018-02-27T23:04:43.905Z,102497.27
2018-02-27T23:07:12.284Z,102503.12
2018-02-27T23:09:40.585Z,102503.04
2018-02-27T23:12:08.913Z,102498.28
2018-02-27T23:14:37.240Z,102500.19
2018-02-27T23:17:05.723Z,102493.14
2018-02-27T23:19:34.031Z,102490.87
2018-02-27T23:22:02.661Z,102492.14
2018-02-27T23:24:44.148Z,102511.72
2018-02-27T23:27:14.564Z,102498.11
2018-02-27T23:29:44.854Z,102501.05
2018-02-27T23:32:14.235Z,102500.56
2018-02-27T23:34:48.462Z,102495.27
2018-02-27T23:37:16.792Z,102499.70
2018-02-27T23:39:45.870Z,102509.31
2018-02-27T23:42:14.439Z,102516.34
2018-02-27T23:44:42.779Z,102517.53
2018-02-27T23:47:11.078Z,102525.13
2018-02-27T23:49:39.394Z,102523.87
2018-02-27T23:52:08.466Z,102521.72
2018-02-27T23:54:36.753Z,102515.00
2018-02-27T23:57:05.101Z,102525.94
2018-02-27T23:59:33.448Z,102520.94
